createdAt,value
2018-06-12T00:01:13.891Z,16.13
2018-06-12T00:02:41.409Z,16.13
2018-06-12T00:04:08.797Z,16.13
2018-06-12T00:05:36.127Z,16.13
2018-06-12T00:07:04.827Z,16.09
2018-06-12T00:08:32.108Z,16.06
2018-06-12T00:09:58.643Z,16.04
2018-06-12T00:11:26.064Z,16.02
2018-06-12T00:12:53.336Z,16.01
2018-06-12T00:14:20.815Z,15.99
2018-06-12T00:15:48.290Z,15.97
2018-06-12T00:17:15.608Z,15.97
2018-06-12T00:18:42.773Z,15.95
2018-06-12T00:20:11.263Z,15.93
2018-06-12T00:21:37.610Z,15.93
2018-06-12T00:23:04.910Z,15.92
2018-06-12T00:24:33.489Z,15.92
2018-06-12T00:26:00.746Z,15.90
2018-06-12T00:27:27.058Z,15.87
2018-06-12T00:28:55.597Z,15.84
2018-06-12T00:30:22.125Z,15.82
2018-06-12T00:31:49.493Z,15.79
2018-06-12T00:33:17.844Z,15.78
2018-06-12T00:34:45.352Z,15.76
2018-06-12T00:36:12.759Z,15.76
2018-06-12T00:37:40.136Z,15.74
2018-06-12T00:39:06.488Z,15.74
2018-06-12T00:40:34.982Z,15.75
2018-06-12T00:42:01.139Z,15.76
2018-06-12T00:43:28.517Z,15.78
2018-06-12T00:44:55.790Z,15.77
2018-06-12T00:46:23.252Z,15.76
2018-06-12T00:47:50.678Z,15.75
2018-06-12T00:49:18.228Z,15.76
2018-06-12T00:50:45.563Z,15.76
2018-06-12T00:52:12.864Z,15.76
2018-06-12T00:53:41.493Z,15.71
2018-06-12T00:55:07.840Z,15.68
2018-06-12T00:56:36.346Z,15.68
2018-06-12T00:58:03.489Z,15.69
2018-06-12T00:59:31.009Z,15.70
2018-06-12T01:00:58.271Z,15.72
2018-06-12T01:02:25.921Z,15.73
2018-06-12T01:03:52.342Z,15.75
2018-06-12T01:05:19.691Z,15.74
2018-06-12T01:06:48.353Z,15.72
2018-06-12T01:08:14.585Z,15.70
2018-06-12T01:09:42.211Z,15.68
2018-06-12T01:11:09.505Z,15.68
2018-06-12T01:12:36.948Z,15.67
2018-06-12T01:14:05.444Z,15.66
2018-06-12T01:15:32.772Z,15.66
2018-06-12T01:17:00.122Z,15.67
2018-06-12T01:18:26.452Z,15.66
2018-06-12T01:19:54.986Z,15.64
2018-06-12T01:21:22.203Z,15.62
2018-06-12T01:22:48.629Z,15.58
2018-06-12T01:24:16.027Z,15.55
2018-06-12T01:25:43.166Z,15.54
2018-06-12T01:27:10.550Z,15.55
2018-06-12T01:28:44.142Z,15.56
2018-06-12T01:30:06.615Z,15.56
2018-06-12T01:31:33.868Z,15.56
2018-06-12T01:33:00.219Z,15.56
2018-06-12T01:34:27.654Z,15.55
2018-06-12T01:35:55.089Z,15.57
2018-06-12T01:37:22.520Z,15.58
2018-06-12T01:38:51.044Z,15.57
2018-06-12T01:40:17.539Z,15.56
2018-06-12T01:41:44.995Z,15.58
2018-06-12T01:43:12.239Z,15.57
2018-06-12T01:44:40.589Z,15.58
2018-06-12T01:46:07.199Z,15.57
2018-06-12T01:47:34.434Z,15.58
2018-06-12T01:49:03.011Z,15.60
2018-06-12T01:50:29.114Z,15.60
2018-06-12T01:51:56.665Z,15.60
2018-06-12T01:53:24.146Z,15.60
2018-06-12T01:54:52.491Z,15.60
2018-06-12T01:56:19.989Z,15.60
2018-06-12T01:57:46.206Z,15.60
2018-06-12T01:59:13.636Z,15.58
2018-06-12T02:00:41.216Z,15.59
2018-06-12T02:02:08.704Z,15.58
2018-06-12T02:03:37.111Z,15.57
2018-06-12T02:05:04.776Z,15.57
2018-06-12T02:06:31.110Z,15.57
2018-06-12T02:07:59.746Z,15.57
2018-06-12T02:09:27.170Z,15.56
2018-06-12T02:10:53.612Z,15.57
2018-06-12T02:12:20.940Z,15.57
2018-06-12T02:13:47.944Z,15.57
2018-06-12T02:15:15.439Z,15.56
2018-06-12T02:16:42.958Z,15.55
2018-06-12T02:18:10.189Z,15.54
2018-06-12T02:19:37.536Z,15.53
2018-06-12T02:21:05.031Z,15.53
2018-06-12T02:22:32.730Z,15.51
2018-06-12T02:24:00.035Z,15.51
2018-06-12T02:25:27.536Z,15.52
2018-06-12T02:26:55.007Z,15.52
2018-06-12T02:28:22.329Z,15.52
2018-06-12T02:29:49.857Z,15.55
2018-06-12T02:31:17.314Z,15.54
2018-06-12T02:32:44.645Z,15.55
2018-06-12T02:34:12.112Z,15.56
2018-06-12T02:35:40.727Z,15.56
2018-06-12T02:37:06.833Z,15.51
2018-06-12T02:38:34.457Z,15.49
2018-06-12T02:40:01.960Z,15.48
2018-06-12T02:41:30.431Z,15.45
2018-06-12T02:42:56.459Z,15.42
2018-06-12T02:44:24.033Z,15.40
2018-06-12T02:45:51.266Z,15.40
2018-06-12T02:47:18.573Z,15.41
2018-06-12T02:48:46.019Z,15.43
2018-06-12T02:50:13.439Z,15.42
2018-06-12T02:51:40.962Z,15.42
2018-06-12T02:53:09.461Z,15.42
2018-06-12T02:54:35.972Z,15.42
2018-06-12T02:56:03.130Z,15.42
2018-06-12T02:57:30.539Z,15.42
2018-06-12T02:58:58.065Z,15.43
2018-06-12T03:00:25.538Z,15.41
2018-06-12T03:01:53.712Z,15.38
2018-06-12T03:03:19.954Z,15.34
2018-06-12T03:04:48.598Z,15.30
2018-06-12T03:06:15.707Z,15.28
2018-06-12T03:07:43.176Z,15.28
2018-06-12T03:09:10.567Z,15.30
2018-06-12T03:10:37.116Z,15.32
2018-06-12T03:12:05.648Z,15.33
2018-06-12T03:13:33.013Z,15.33
2018-06-12T03:14:59.392Z,15.33
2018-06-12T03:16:27.762Z,15.34
2018-06-12T03:17:54.091Z,15.34
2018-06-12T03:19:21.530Z,15.35
2018-06-12T03:20:48.984Z,15.35
2018-06-12T03:22:17.398Z,15.36
2018-06-12T03:23:43.822Z,15.36
2018-06-12T03:25:12.213Z,15.36
2018-06-12T03:26:39.465Z,15.38
2018-06-12T03:28:05.861Z,15.39
2018-06-12T03:29:33.483Z,15.41
2018-06-12T03:31:00.812Z,15.41
2018-06-12T03:32:28.236Z,15.41
2018-06-12T03:33:56.683Z,15.40
2018-06-12T03:35:22.983Z,15.39
2018-06-12T03:36:50.535Z,15.38
2018-06-12T03:38:18.835Z,15.37
2018-06-12T03:39:45.103Z,15.36
2018-06-12T03:41:12.630Z,15.35
2018-06-12T03:42:40.146Z,15.34
2018-06-12T03:44:08.508Z,15.34
2018-06-12T03:45:35.990Z,15.32
2018-06-12T03:47:02.369Z,15.30
2018-06-12T03:48:29.843Z,15.29
2018-06-12T03:49:57.273Z,15.29
2018-06-12T03:51:24.663Z,15.27
2018-06-12T03:52:53.233Z,15.29
2018-06-12T03:54:19.433Z,15.29
2018-06-12T03:55:46.976Z,15.28
2018-06-12T03:57:14.273Z,15.28
2018-06-12T03:58:41.886Z,15.26
2018-06-12T04:00:09.072Z,15.25
2018-06-12T04:01:36.643Z,15.23
2018-06-12T04:03:04.030Z,15.22
2018-06-12T04:04:31.651Z,15.21
2018-06-12T04:05:59.163Z,15.23
2018-06-12T04:07:26.608Z,15.24
2018-06-12T04:08:54.808Z,15.25
2018-06-12T04:10:21.162Z,15.25
2018-06-12T04:11:48.644Z,15.28
2018-06-12T04:13:16.207Z,15.30
2018-06-12T04:14:44.634Z,15.32
2018-06-12T04:16:12.117Z,15.33
2018-06-12T04:17:38.488Z,15.33
2018-06-12T04:19:05.962Z,15.32
2018-06-12T04:20:33.388Z,15.32
2018-06-12T04:22:00.611Z,15.31
2018-06-12T04:23:29.183Z,15.31
2018-06-12T04:24:55.685Z,15.32
2018-06-12T04:26:24.208Z,15.33
2018-06-12T04:27:50.334Z,15.32
2018-06-12T04:29:18.775Z,15.31
2018-06-12T04:30:45.113Z,15.30
2018-06-12T04:32:12.682Z,15.29
2018-06-12T04:33:41.128Z,15.30
2018-06-12T04:35:08.646Z,15.31
2018-06-12T04:36:35.825Z,15.31
2018-06-12T04:38:02.301Z,15.31
2018-06-12T04:39:30.600Z,15.29
2018-06-12T04:40:56.902Z,15.29
2018-06-12T04:42:24.584Z,15.28
2018-06-12T04:43:52.034Z,15.29
2018-06-12T04:45:20.657Z,15.30
2018-06-12T04:46:46.993Z,15.32
2018-06-12T04:48:14.468Z,15.34
2018-06-12T04:49:41.725Z,15.33
2018-06-12T04:51:10.010Z,15.35
2018-06-12T04:52:36.422Z,15.35
2018-06-12T04:54:03.886Z,15.35
2018-06-12T04:55:32.437Z,15.34
2018-06-12T04:56:58.770Z,15.33
2018-06-12T04:58:27.430Z,15.35
2018-06-12T04:59:53.906Z,15.38
2018-06-12T05:01:21.488Z,15.41
2018-06-12T05:02:48.769Z,15.42
2018-06-12T05:04:16.130Z,15.41
2018-06-12T05:05:44.372Z,15.42
2018-06-12T05:07:10.764Z,15.42
2018-06-12T05:08:39.180Z,15.42
2018-06-12T05:10:05.496Z,15.42
2018-06-12T05:11:34.109Z,15.43
2018-06-12T05:13:00.243Z,15.45
2018-06-12T05:14:27.794Z,15.47
2018-06-12T05:15:55.025Z,15.47
2018-06-12T05:17:22.354Z,15.47
2018-06-12T05:18:49.597Z,15.47
2018-06-12T05:20:17.267Z,15.48
2018-06-12T05:21:44.562Z,15.49
2018-06-12T05:23:12.039Z,15.50
2018-06-12T05:24:39.719Z,15.51
2018-06-12T05:26:07.203Z,15.53
2018-06-12T05:27:34.680Z,15.56
2018-06-12T05:29:03.160Z,15.57
2018-06-12T05:30:29.399Z,15.58
2018-06-12T05:31:56.909Z,15.60
2018-06-12T05:33:25.246Z,15.61
2018-06-12T05:34:51.507Z,15.63
2018-06-12T05:36:18.953Z,15.64
2018-06-12T05:37:46.279Z,15.65
2018-06-12T05:39:14.757Z,15.67
2018-06-12T05:40:41.094Z,15.69
2018-06-12T05:42:08.641Z,15.69
2018-06-12T05:43:35.975Z,15.71
2018-06-12T05:45:04.397Z,15.71
2018-06-12T05:46:30.879Z,15.71
2018-06-12T05:47:59.337Z,15.72
2018-06-12T05:49:25.820Z,15.72
2018-06-12T05:50:53.202Z,15.73
2018-06-12T05:52:21.792Z,15.71
2018-06-12T05:53:48.234Z,15.71
2018-06-12T05:55:15.517Z,15.73
2018-06-12T05:56:42.706Z,15.75
2018-06-12T05:58:11.358Z,15.76
2018-06-12T05:59:37.560Z,15.76
2018-06-12T06:01:06.118Z,15.78
2018-06-12T06:02:32.566Z,15.80
2018-06-12T06:04:00.087Z,15.82
2018-06-12T06:05:28.455Z,15.84
2018-06-12T06:06:54.685Z,15.86
2018-06-12T06:08:23.170Z,15.87
2018-06-12T06:09:49.605Z,15.89
2018-06-12T06:11:17.988Z,15.91
2018-06-12T06:12:44.532Z,15.92
2018-06-12T06:14:13.066Z,15.94
2018-06-12T06:15:39.371Z,15.94
2018-06-12T06:17:06.879Z,15.94
2018-06-12T06:18:34.424Z,15.92
2018-06-12T06:20:01.775Z,15.90
2018-06-12T06:21:29.252Z,15.90
2018-06-12T06:22:56.629Z,15.90
2018-06-12T06:24:24.017Z,15.90
2018-06-12T06:25:52.376Z,15.89
2018-06-12T06:27:18.830Z,15.90
2018-06-12T06:28:46.375Z,15.89
2018-06-12T06:30:13.650Z,15.90
2018-06-12T06:31:40.983Z,15.92
2018-06-12T06:33:08.368Z,15.95
2018-06-12T06:34:35.802Z,15.97
2018-06-12T06:36:03.167Z,15.99
2018-06-12T06:37:31.666Z,16.01
2018-06-12T06:38:59.143Z,16.03
2018-06-12T06:40:26.515Z,16.04
2018-06-12T06:41:54.173Z,16.04
2018-06-12T06:43:21.416Z,16.05
2018-06-12T06:44:48.887Z,16.05
2018-06-12T06:46:15.383Z,16.07
2018-06-12T06:47:43.675Z,16.09
2018-06-12T06:49:10.116Z,16.08
2018-06-12T06:50:38.612Z,16.08
2018-06-12T06:52:05.888Z,16.08
2018-06-12T06:53:32.365Z,16.07
2018-06-12T06:54:59.820Z,16.06
2018-06-12T06:56:28.283Z,16.05
2018-06-12T06:57:55.510Z,16.04
2018-06-12T06:59:21.818Z,16.04
2018-06-12T07:00:49.292Z,16.04
2018-06-12T07:02:17.677Z,16.05
2018-06-12T07:03:43.902Z,16.06
2018-06-12T07:05:11.403Z,16.08
2018-06-12T07:06:38.904Z,16.08
2018-06-12T07:08:07.063Z,16.08
2018-06-12T07:09:33.121Z,16.08
2018-06-12T07:11:00.584Z,16.07
2018-06-12T07:12:28.175Z,16.06
2018-06-12T07:13:55.618Z,16.08
2018-06-12T07:15:22.895Z,16.06
2018-06-12T07:16:50.283Z,16.08
2018-06-12T07:18:18.752Z,16.12
2018-06-12T07:19:45.085Z,16.13
2018-06-12T07:21:12.395Z,16.14
2018-06-12T07:22:39.588Z,16.15
2018-06-12T07:24:07.201Z,16.16
2018-06-12T07:25:34.661Z,16.19
2018-06-12T07:27:02.027Z,16.18
2018-06-12T07:28:29.416Z,16.20
2018-06-12T07:29:57.722Z,16.16
2018-06-12T07:31:25.228Z,16.11
2018-06-12T07:32:51.558Z,16.06
2018-06-12T07:34:19.963Z,16.05
2018-06-12T07:35:47.429Z,16.05
2018-06-12T07:37:14.777Z,16.03
2018-06-12T07:38:41.155Z,16.02
2018-06-12T07:40:09.694Z,16.03
2018-06-12T07:41:36.101Z,16.05
2018-06-12T07:43:03.480Z,16.06
2018-06-12T07:44:31.043Z,16.06
2018-06-12T07:45:58.562Z,16.09
2018-06-12T07:47:26.873Z,16.12
2018-06-12T07:48:54.530Z,16.14
2018-06-12T07:50:21.756Z,16.16
2018-06-12T07:51:49.225Z,16.18
2018-06-12T07:53:15.530Z,16.19
2018-06-12T07:54:44.026Z,16.22
2018-06-12T07:56:10.277Z,16.24
2018-06-12T07:57:37.653Z,16.25
2018-06-12T07:59:04.840Z,16.26
2018-06-12T08:00:32.245Z,16.26
2018-06-12T08:01:59.459Z,16.25
2018-06-12T08:03:26.782Z,16.26
2018-06-12T08:04:54.219Z,16.26
2018-06-12T08:06:21.768Z,16.25
2018-06-12T08:07:50.218Z,16.27
2018-06-12T08:09:16.647Z,16.30
2018-06-12T08:10:44.099Z,16.33
2018-06-12T08:12:12.656Z,16.35
2018-06-12T08:13:38.942Z,16.35
2018-06-12T08:15:06.528Z,16.35
2018-06-12T08:16:33.862Z,16.34
2018-06-12T08:18:01.283Z,16.35
2018-06-12T08:19:29.803Z,16.37
2018-06-12T08:20:56.303Z,16.38
2018-06-12T08:22:23.738Z,16.40
2018-06-12T08:23:51.272Z,16.42
2018-06-12T08:25:19.665Z,16.42
2018-06-12T08:26:46.076Z,16.41
2018-06-12T08:28:14.283Z,16.39
2018-06-12T08:29:41.691Z,16.38
2018-06-12T08:31:07.961Z,16.38
2018-06-12T08:32:35.276Z,16.40
2018-06-12T08:34:03.687Z,16.40
2018-06-12T08:35:31.179Z,16.41
2018-06-12T08:36:57.344Z,16.42
2018-06-12T08:38:24.720Z,16.41
2018-06-12T08:39:52.285Z,16.42
2018-06-12T08:41:19.691Z,16.45
2018-06-12T08:42:47.924Z,16.46
2018-06-12T08:44:14.092Z,16.49
2018-06-12T08:45:41.385Z,16.52
2018-06-12T08:47:08.919Z,16.53
2018-06-12T08:48:36.452Z,16.53
2018-06-12T08:50:03.979Z,16.54
2018-06-12T08:51:32.422Z,16.55
2018-06-12T08:52:59.870Z,16.55
2018-06-12T08:54:26.421Z,16.55
2018-06-12T08:56:03.630Z,16.54
2018-06-12T08:57:31.028Z,16.55
2018-06-12T08:58:58.446Z,16.57
2018-06-12T09:00:25.847Z,16.61
2018-06-12T09:01:53.257Z,16.64
2018-06-12T09:03:21.573Z,16.66
2018-06-12T09:04:49.021Z,16.68
2018-06-12T09:06:15.126Z,16.70
2018-06-12T09:07:42.268Z,16.71
2018-06-12T09:09:09.855Z,16.68
2018-06-12T09:10:37.174Z,16.66
2018-06-12T09:12:04.483Z,16.64
2018-06-12T09:13:31.942Z,16.65
2018-06-12T09:14:59.329Z,16.66
2018-06-12T09:16:27.486Z,16.65
2018-06-12T09:17:53.794Z,16.65
2018-06-12T09:19:21.076Z,16.63
2018-06-12T09:20:48.382Z,16.61
2018-06-12T09:22:15.882Z,16.62
2018-06-12T09:23:43.340Z,16.63
2018-06-12T09:25:10.763Z,16.64
2018-06-12T09:26:39.330Z,16.63
2018-06-12T09:28:05.678Z,16.64
2018-06-12T09:29:32.996Z,16.67
2018-06-12T09:31:01.305Z,16.67
2018-06-12T09:32:28.807Z,16.65
2018-06-12T09:33:56.346Z,16.64
2018-06-12T09:35:23.816Z,16.64
2018-06-12T09:36:50.108Z,16.65
2018-06-12T09:38:18.798Z,16.68
2018-06-12T09:39:45.084Z,16.71
2018-06-12T09:41:12.408Z,16.74
2018-06-12T09:42:41.041Z,16.77
2018-06-12T09:44:08.621Z,16.80
2018-06-12T09:45:35.911Z,16.81
2018-06-12T09:47:03.362Z,16.84
2018-06-12T09:48:29.497Z,16.88
2018-06-12T09:49:56.943Z,16.93
2018-06-12T09:51:25.561Z,16.96
2018-06-12T09:52:52.577Z,17.01
2018-06-12T09:54:20.119Z,17.05
2018-06-12T09:55:47.493Z,17.09
2018-06-12T09:57:13.636Z,17.13
2018-06-12T09:58:42.218Z,17.16
2018-06-12T10:00:08.595Z,17.18
2018-06-12T10:01:36.087Z,17.22
2018-06-12T10:03:03.575Z,17.27
2018-06-12T10:04:31.174Z,17.32
2018-06-12T10:05:59.575Z,17.33
2018-06-12T10:07:25.731Z,17.30
2018-06-12T10:08:52.982Z,17.30
2018-06-12T10:10:20.198Z,17.27
2018-06-12T10:11:47.724Z,17.23
2018-06-12T10:13:16.285Z,17.19
2018-06-12T10:14:43.533Z,17.16
2018-06-12T10:16:10.877Z,17.15
2018-06-12T10:17:38.508Z,17.15
2018-06-12T10:19:05.082Z,17.17
2018-06-12T10:20:32.531Z,17.21
2018-06-12T10:22:00.133Z,17.27
2018-06-12T10:23:28.599Z,17.32
2018-06-12T10:24:56.149Z,17.35
2018-06-12T10:26:23.528Z,17.38
2018-06-12T10:27:49.968Z,17.38
2018-06-12T10:29:17.460Z,17.36
2018-06-12T10:30:46.070Z,17.34
2018-06-12T10:32:12.305Z,17.32
2018-06-12T10:33:40.824Z,17.28
2018-06-12T10:35:07.206Z,17.25
2018-06-12T10:36:34.522Z,17.26
2018-06-12T10:38:03.255Z,17.28
2018-06-12T10:39:29.721Z,17.33
2018-06-12T10:40:57.149Z,17.38
2018-06-12T10:42:24.557Z,17.41
2018-06-12T10:43:51.994Z,17.46
2018-06-12T10:45:19.537Z,17.53
2018-06-12T10:46:47.990Z,17.59
2018-06-12T10:48:14.467Z,17.66
2018-06-12T10:49:41.567Z,17.74
2018-06-12T10:51:09.035Z,17.78
2018-06-12T10:52:36.653Z,17.82
2018-06-12T10:54:04.191Z,17.87
2018-06-12T10:55:31.332Z,17.91
2018-06-12T10:56:59.572Z,17.96
2018-06-12T10:58:27.008Z,18.03
2018-06-12T10:59:53.415Z,18.12
2018-06-12T11:01:20.837Z,18.19
2018-06-12T11:02:48.455Z,18.23
2018-06-12T11:04:15.892Z,18.27
2018-06-12T11:05:44.430Z,18.29
2018-06-12T11:07:10.958Z,18.31
2018-06-12T11:08:38.470Z,18.34
2018-06-12T11:10:06.012Z,18.31
2018-06-12T11:11:33.173Z,18.24
2018-06-12T11:13:00.615Z,18.18
2018-06-12T11:14:29.172Z,18.19
2018-06-12T11:15:55.498Z,18.18
2018-06-12T11:17:22.959Z,18.15
2018-06-12T11:18:51.533Z,18.13
2018-06-12T11:20:17.494Z,18.12
2018-06-12T11:21:44.897Z,18.09
2018-06-12T11:23:12.582Z,18.04
2018-06-12T11:24:40.189Z,18.00
2018-06-12T11:26:07.309Z,17.96
2018-06-12T11:27:34.683Z,17.94
2018-06-12T11:29:03.236Z,17.92
2018-06-12T11:30:29.520Z,17.88
2018-06-12T11:31:58.054Z,17.84
2018-06-12T11:33:24.348Z,17.82
2018-06-12T11:34:51.228Z,17.79
2018-06-12T11:36:18.460Z,17.78
2018-06-12T11:37:45.812Z,17.77
2018-06-12T11:39:14.060Z,17.75
2018-06-12T11:40:41.573Z,17.75
2018-06-12T11:42:08.284Z,17.72
2018-06-12T11:43:35.912Z,17.69
2018-06-12T11:45:03.215Z,17.67
2018-06-12T11:46:30.803Z,17.64
2018-06-12T11:47:57.930Z,17.64
2018-06-12T11:49:26.328Z,17.66
2018-06-12T11:50:53.748Z,17.67
2018-06-12T11:52:21.039Z,17.69
2018-06-12T11:53:48.441Z,17.70
2018-06-12T11:55:14.638Z,17.71
2018-06-12T11:56:42.290Z,17.72
2018-06-12T11:58:10.424Z,17.74
2018-06-12T11:59:37.784Z,17.75
2018-06-12T12:01:04.230Z,17.74
2018-06-12T12:02:31.293Z,17.75
2018-06-12T12:03:58.769Z,17.77
2018-06-12T12:05:26.316Z,17.77
2018-06-12T12:06:54.835Z,17.75
2018-06-12T12:08:21.252Z,17.75
2018-06-12T12:09:48.810Z,17.78
2018-06-12T12:11:16.316Z,17.80
2018-06-12T12:12:43.592Z,17.80
2018-06-12T12:14:11.089Z,17.82
2018-06-12T12:15:38.729Z,17.85
2018-06-12T12:17:07.331Z,17.84
2018-06-12T12:18:34.448Z,17.87
2018-06-12T12:20:00.892Z,17.90
2018-06-12T12:21:28.433Z,17.94
2018-06-12T12:22:56.693Z,17.96
2018-06-12T12:24:23.135Z,17.98
2018-06-12T12:25:50.316Z,17.99
2018-06-12T12:27:17.649Z,17.99
2018-06-12T12:28:46.088Z,17.98
2018-06-12T12:30:13.416Z,17.98
2018-06-12T12:31:39.697Z,18.00
2018-06-12T12:33:07.169Z,17.99
2018-06-12T12:34:34.412Z,17.98
2018-06-12T12:36:01.879Z,17.95
2018-06-12T12:37:29.833Z,17.92
2018-06-12T12:38:56.336Z,17.91
2018-06-12T12:40:23.808Z,17.91
2018-06-12T12:41:51.105Z,17.93
2018-06-12T12:43:19.547Z,17.95
2018-06-12T12:44:45.722Z,17.97
2018-06-12T12:46:13.559Z,18.02
2018-06-12T12:47:41.027Z,18.06
2018-06-12T12:49:07.470Z,18.09
2018-06-12T12:50:34.823Z,18.11
2018-06-12T12:52:02.317Z,18.13
2018-06-12T12:53:30.487Z,18.14
2018-06-12T12:54:57.713Z,18.18
2018-06-12T12:56:24.168Z,18.19
2018-06-12T12:57:51.528Z,18.23
2018-06-12T12:59:19.957Z,18.27
2018-06-12T13:00:46.330Z,18.29
2018-06-12T13:02:14.612Z,18.32
2018-06-12T13:03:42.025Z,18.33
2018-06-12T13:05:08.414Z,18.37
2018-06-12T13:06:35.855Z,18.44
2018-06-12T13:08:04.404Z,18.51
2018-06-12T13:09:31.942Z,18.59
2018-06-12T13:10:59.492Z,18.65
2018-06-12T13:12:25.892Z,18.70
2018-06-12T13:13:54.401Z,18.74
2018-06-12T13:15:20.884Z,18.76
2018-06-12T13:16:49.300Z,18.79
2018-06-12T13:18:15.305Z,18.82
2018-06-12T13:19:42.856Z,18.86
2018-06-12T13:21:10.408Z,18.91
2018-06-12T13:22:37.700Z,18.91
2018-06-12T13:24:06.212Z,18.92
2018-06-12T13:25:31.903Z,18.95
2018-06-12T13:26:59.310Z,18.97
2018-06-12T13:28:26.072Z,18.99
2018-06-12T13:29:54.350Z,19.00
2018-06-12T13:31:20.707Z,19.02
2018-06-12T13:32:48.207Z,19.02
2018-06-12T13:34:15.738Z,19.05
2018-06-12T13:35:43.096Z,19.07
2018-06-12T13:37:11.620Z,19.08
2018-06-12T13:38:38.079Z,19.10
2018-06-12T13:40:06.504Z,19.14
2018-06-12T13:41:32.189Z,19.17
2018-06-12T13:43:00.378Z,19.21
2018-06-12T13:44:26.730Z,19.23
2018-06-12T13:45:54.418Z,19.24
2018-06-12T13:47:21.795Z,19.26
2018-06-12T13:48:49.453Z,19.25
2018-06-12T13:50:16.698Z,19.22
2018-06-12T13:51:43.867Z,19.20
2018-06-12T13:53:10.897Z,19.19
2018-06-12T13:54:38.672Z,19.18
2018-06-12T13:56:07.168Z,19.15
2018-06-12T13:57:34.549Z,19.14
2018-06-12T13:59:01.094Z,19.14
2018-06-12T14:00:28.750Z,19.14
2018-06-12T14:01:55.991Z,19.14
2018-06-12T14:03:23.378Z,19.16
2018-06-12T14:04:51.012Z,19.17
2018-06-12T14:06:18.421Z,19.21
2018-06-12T14:07:47.091Z,19.24
2018-06-12T14:09:14.364Z,19.21
2018-06-12T14:10:40.772Z,19.20
2018-06-12T14:12:09.120Z,19.14
2018-06-12T14:13:36.877Z,19.10
2018-06-12T14:15:03.082Z,19.07
2018-06-12T14:16:31.701Z,19.02
2018-06-12T14:17:58.052Z,18.99
2018-06-12T14:19:25.645Z,18.97
2018-06-12T14:20:52.898Z,18.97
2018-06-12T14:22:21.499Z,18.99
2018-06-12T14:23:47.974Z,19.02
2018-06-12T14:25:16.374Z,19.04
2018-06-12T14:26:42.557Z,19.05
2018-06-12T14:28:10.191Z,19.04
2018-06-12T14:29:37.666Z,19.01
2018-06-12T14:31:04.972Z,18.97
2018-06-12T14:32:32.704Z,18.94
2018-06-12T14:34:01.144Z,18.94
2018-06-12T14:35:28.433Z,18.96
2018-06-12T14:36:54.206Z,18.96
2018-06-12T14:38:21.732Z,18.98
2018-06-12T14:39:49.338Z,19.01
2018-06-12T14:41:17.481Z,19.03
2018-06-12T14:42:43.657Z,19.06
2018-06-12T14:44:12.381Z,19.08
2018-06-12T14:45:38.693Z,19.11
2018-06-12T14:47:06.293Z,19.12
2018-06-12T14:48:33.739Z,19.08
2018-06-12T14:50:01.231Z,19.06
2018-06-12T14:51:28.744Z,19.06
2018-06-12T14:52:56.185Z,19.07
2018-06-12T14:54:23.665Z,19.07
2018-06-12T14:55:52.251Z,19.06
2018-06-12T14:57:19.645Z,19.05
2018-06-12T14:58:47.198Z,19.06
2018-06-12T15:00:13.611Z,19.07
2018-06-12T15:01:40.673Z,19.07
2018-06-12T15:03:08.094Z,19.07
2018-06-12T15:04:35.663Z,19.06
2018-06-12T15:06:02.692Z,19.05
2018-06-12T15:07:31.200Z,19.03
2018-06-12T15:08:57.503Z,19.02
2018-06-12T15:10:24.973Z,18.98
2018-06-12T15:11:51.860Z,18.97
2018-06-12T15:13:19.161Z,18.98
2018-06-12T15:14:47.680Z,19.00
2018-06-12T15:16:14.694Z,19.02
2018-06-12T15:17:41.743Z,19.02
2018-06-12T15:19:07.968Z,19.01
2018-06-12T15:20:35.701Z,19.01
2018-06-12T15:22:02.870Z,19.00
2018-06-12T15:23:31.417Z,18.97
2018-06-12T15:24:57.690Z,18.96
2018-06-12T15:26:25.247Z,18.96
2018-06-12T15:27:52.778Z,18.94
2018-06-12T15:29:21.101Z,18.94
2018-06-12T15:30:48.452Z,18.95
2018-06-12T15:32:14.970Z,18.94
2018-06-12T15:33:42.054Z,18.94
2018-06-12T15:35:09.557Z,18.97
2018-06-12T15:36:38.205Z,18.98
2018-06-12T15:38:05.614Z,18.96
2018-06-12T15:39:33.098Z,18.95
2018-06-12T15:40:59.384Z,18.93
2018-06-12T15:42:26.302Z,18.94
2018-06-12T15:43:53.809Z,18.93
2018-06-12T15:45:21.342Z,18.92
2018-06-12T15:46:49.039Z,18.90
2018-06-12T15:48:16.344Z,18.88
2018-06-12T15:49:43.996Z,18.86
2018-06-12T15:51:11.530Z,18.83
2018-06-12T15:52:38.577Z,18.82
2018-06-12T15:54:06.109Z,18.82
2018-06-12T15:55:33.649Z,18.82
2018-06-12T15:57:00.908Z,18.80
2018-06-12T15:58:28.521Z,18.77
2018-06-12T15:59:55.859Z,18.74
2018-06-12T16:01:24.459Z,18.72
2018-06-12T16:02:50.889Z,18.69
2018-06-12T16:04:18.105Z,18.66
2018-06-12T16:05:45.422Z,18.63
2018-06-12T16:07:12.591Z,18.61
2018-06-12T16:08:40.121Z,18.58
2018-06-12T16:10:07.403Z,18.56
2018-06-12T16:11:34.778Z,18.54
2018-06-12T16:13:02.377Z,18.51
2018-06-12T16:14:29.836Z,18.49
2018-06-12T16:15:57.381Z,18.49
2018-06-12T16:17:25.931Z,18.47
2018-06-12T16:18:52.424Z,18.45
2018-06-12T16:20:19.680Z,18.44
2018-06-12T16:21:48.182Z,18.42
2018-06-12T16:23:15.666Z,18.38
2018-06-12T16:24:41.760Z,18.36
2018-06-12T16:26:09.513Z,18.34
2018-06-12T16:27:36.923Z,18.33
2018-06-12T16:29:04.383Z,18.33
2018-06-12T16:30:31.882Z,18.33
2018-06-12T16:32:00.344Z,18.34
2018-06-12T16:33:26.860Z,18.35
2018-06-12T16:34:55.354Z,18.35
2018-06-12T16:36:21.644Z,18.37
2018-06-12T16:37:49.185Z,18.37
2018-06-12T16:39:16.592Z,18.38
2018-06-12T16:40:44.077Z,18.36
2018-06-12T16:42:11.359Z,18.33
2018-06-12T16:43:38.908Z,18.33
2018-06-12T16:45:06.155Z,18.30
2018-06-12T16:46:34.414Z,18.26
2018-06-12T16:48:00.732Z,18.21
2018-06-12T16:49:28.136Z,18.19
2018-06-12T16:50:56.727Z,18.17
2018-06-12T16:52:24.237Z,18.16
2018-06-12T16:53:51.632Z,18.16
2018-06-12T16:55:17.834Z,18.15
2018-06-12T16:56:45.281Z,18.13
2018-06-12T16:58:12.988Z,18.12
2018-06-12T16:59:40.424Z,18.09
2018-06-12T17:01:08.094Z,18.08
2018-06-12T17:02:35.490Z,18.06
2018-06-12T17:04:04.215Z,18.05
2018-06-12T17:05:30.590Z,18.06
2018-06-12T17:06:58.669Z,18.04
2018-06-12T17:08:25.142Z,18.03
2018-06-12T17:09:52.622Z,18.03
2018-06-12T17:11:20.037Z,18.04
2018-06-12T17:12:48.680Z,18.04
2018-06-12T17:14:14.898Z,18.03
2018-06-12T17:15:43.123Z,18.04
2018-06-12T17:17:09.493Z,18.04
2018-06-12T17:18:36.820Z,18.04
2018-06-12T17:20:05.458Z,18.04
2018-06-12T17:21:31.892Z,18.04
2018-06-12T17:22:59.518Z,18.05
2018-06-12T17:24:26.413Z,18.05
2018-06-12T17:25:53.866Z,18.03
2018-06-12T17:27:21.320Z,18.03
2018-06-12T17:28:49.906Z,18.04
2018-06-12T17:30:16.363Z,18.04
2018-06-12T17:31:43.794Z,18.04
2018-06-12T17:33:11.262Z,18.03
2018-06-12T17:34:38.547Z,18.02
2018-06-12T17:36:07.001Z,18.00
2018-06-12T17:37:34.158Z,18.00
2018-06-12T17:39:01.617Z,18.00
2018-06-12T17:40:27.972Z,18.01
2018-06-12T17:41:55.328Z,18.00
2018-06-12T17:43:23.032Z,17.98
2018-06-12T17:44:51.437Z,17.95
2018-06-12T17:46:20.949Z,17.95
2018-06-12T17:47:45.480Z,17.94
2018-06-12T17:49:12.673Z,17.94
2018-06-12T17:50:39.929Z,17.94
2018-06-12T17:52:07.587Z,17.93
2018-06-12T17:53:35.217Z,17.92
2018-06-12T17:55:02.328Z,17.91
2018-06-12T17:56:30.843Z,17.90
2018-06-12T17:57:56.964Z,17.88
2018-06-12T17:59:25.502Z,17.87
2018-06-12T18:00:51.838Z,17.86
2018-06-12T18:02:19.097Z,17.85
2018-06-12T18:03:46.431Z,17.85
2018-06-12T18:05:14.967Z,17.84
2018-06-12T18:06:41.272Z,17.82
2018-06-12T18:08:08.662Z,17.80
2018-06-12T18:09:36.756Z,17.79
2018-06-12T18:11:03.104Z,17.79
2018-06-12T18:12:31.681Z,17.77
2018-06-12T18:13:58.086Z,17.76
2018-06-12T18:15:26.204Z,17.74
2018-06-12T18:16:52.608Z,17.72
2018-06-12T18:18:20.017Z,17.70
2018-06-12T18:19:48.482Z,17.69
2018-06-12T18:21:15.659Z,17.67
2018-06-12T18:22:41.559Z,17.64
2018-06-12T18:24:09.104Z,17.62
2018-06-12T18:25:37.673Z,17.61
2018-06-12T18:27:04.022Z,17.60
2018-06-12T18:28:31.201Z,17.59
2018-06-12T18:29:59.719Z,17.58
2018-06-12T18:31:26.976Z,17.57
2018-06-12T18:32:54.455Z,17.56
2018-06-12T18:34:20.987Z,17.56
2018-06-12T18:35:49.514Z,17.55
2018-06-12T18:37:15.966Z,17.53
2018-06-12T18:38:43.299Z,17.50
2018-06-12T18:40:11.770Z,17.46
2018-06-12T18:41:38.231Z,17.43
2018-06-12T18:43:05.653Z,17.40
2018-06-12T18:44:32.432Z,17.38
2018-06-12T18:46:00.802Z,17.36